createdAt,value
2022-11-10T00:01:18.033Z,74.52
2022-11-10T00:03:44.230Z,74.53
2022-11-10T00:06:10.352Z,74.62
2022-11-10T00:08:36.440Z,74.74
2022-11-10T00:11:02.748Z,74.71
2022-11-10T00:13:28.829Z,74.69
2022-11-10T00:15:54.936Z,74.74
2022-11-10T00:18:21.069Z,74.88
2022-11-10T00:20:47.173Z,74.88
2022-11-10T00:23:13.280Z,74.94
2022-11-10T00:25:39.389Z,74.85
2022-11-10T00:28:05.501Z,74.85
2022-11-10T00:30:31.598Z,74.92
2022-11-10T00:32:57.717Z,74.97
2022-11-10T00:35:23.817Z,74.97
2022-11-10T00:37:49.908Z,75.01
2022-11-10T00:40:16.024Z,75.01
2022-11-10T00:42:42.111Z,74.96
2022-11-10T00:45:08.189Z,75.05
2022-11-10T00:47:34.308Z,74.72
2022-11-10T00:50:00.392Z,74.94
2022-11-10T00:52:26.475Z,74.99
2022-11-10T00:54:52.591Z,74.96
2022-11-10T00:57:18.681Z,75.00
2022-11-10T00:59:44.782Z,74.98
2022-11-10T01:02:10.912Z,75.02
2022-11-10T01:04:37.002Z,75.01
2022-11-10T01:07:03.138Z,75.04
2022-11-10T01:09:29.271Z,75.01
2022-11-10T01:11:55.357Z,74.94
2022-11-10T01:14:21.458Z,74.99
2022-11-10T01:16:47.572Z,74.89
2022-11-10T01:19:13.657Z,74.90
2022-11-10T01:21:39.741Z,74.81
2022-11-10T01:24:05.895Z,75.07
2022-11-10T01:26:32.084Z,75.03
2022-11-10T01:28:58.179Z,75.04
2022-11-10T01:31:25.841Z,75.03
2022-11-10T01:33:51.937Z,75.17
2022-11-10T01:36:18.044Z,75.27
2022-11-10T01:38:44.168Z,75.27
2022-11-10T01:41:10.283Z,75.36
2022-11-10T01:43:36.365Z,75.40
2022-11-10T01:46:02.962Z,75.42
2022-11-10T01:48:29.058Z,75.38
2022-11-10T01:50:55.148Z,75.46
2022-11-10T01:53:21.604Z,75.55
2022-11-10T01:55:47.832Z,75.69
2022-11-10T01:58:13.929Z,75.53
2022-11-10T02:00:40.087Z,75.56
2022-11-10T02:03:06.228Z,75.64
2022-11-10T02:05:32.324Z,75.74
2022-11-10T02:07:58.450Z,75.72
2022-11-10T02:10:24.533Z,75.83
2022-11-10T02:12:50.646Z,75.83
2022-11-10T02:15:16.756Z,75.85
2022-11-10T02:17:42.859Z,75.83
2022-11-10T02:20:08.969Z,75.84
2022-11-10T02:22:35.087Z,75.78
2022-11-10T02:25:01.186Z,75.88
2022-11-10T02:27:27.283Z,75.85
2022-11-10T02:29:53.407Z,75.92
2022-11-10T02:32:19.510Z,75.93
2022-11-10T02:34:45.599Z,75.89
2022-11-10T02:37:11.701Z,75.83
2022-11-10T02:39:37.812Z,75.91
2022-11-10T02:42:03.896Z,75.99
2022-11-10T02:44:30.010Z,75.98
2022-11-10T02:46:56.107Z,76.00
2022-11-10T02:49:22.195Z,76.14
2022-11-10T02:51:48.304Z,76.18
2022-11-10T02:54:14.393Z,76.24
2022-11-10T02:56:40.475Z,76.28
2022-11-10T02:59:06.665Z,76.27
2022-11-10T03:01:32.931Z,76.24
2022-11-10T03:03:59.068Z,76.22
2022-11-10T03:06:25.183Z,76.32
2022-11-10T03:08:51.286Z,76.36
2022-11-10T03:11:17.397Z,76.31
2022-11-10T03:14:00.398Z,76.46
2022-11-10T03:16:27.855Z,76.52
2022-11-10T03:18:53.969Z,76.46
2022-11-10T03:21:20.103Z,76.41
2022-11-10T03:23:46.188Z,76.46
2022-11-10T03:26:12.581Z,76.58
2022-11-10T03:28:38.677Z,76.63
2022-11-10T03:31:04.783Z,76.63
2022-11-10T03:33:30.901Z,76.63
2022-11-10T03:35:56.999Z,76.68
2022-11-10T03:38:23.089Z,76.75
2022-11-10T03:41:18.924Z,76.75
2022-11-10T03:43:35.296Z,76.73
2022-11-10T03:46:01.417Z,76.87
2022-11-10T03:48:27.516Z,76.92
2022-11-10T03:50:53.603Z,76.92
2022-11-10T03:53:20.509Z,76.92
2022-11-10T03:55:46.750Z,77.00
2022-11-10T03:58:12.897Z,77.03
2022-11-10T04:00:39.004Z,77.07
2022-11-10T04:03:05.091Z,77.16
2022-11-10T04:05:31.180Z,77.16
2022-11-10T04:07:57.312Z,77.18
2022-11-10T04:10:23.400Z,77.09
2022-11-10T04:12:49.488Z,77.27
2022-11-10T04:15:15.606Z,77.29
2022-11-10T04:17:41.712Z,77.32
2022-11-10T04:20:07.824Z,77.38
2022-11-10T04:22:33.941Z,77.41
2022-11-10T04:25:00.047Z,77.57
2022-11-10T04:27:26.157Z,77.69
2022-11-10T04:29:52.270Z,77.69
2022-11-10T04:32:18.372Z,77.72
2022-11-10T04:34:44.474Z,77.69
2022-11-10T04:37:10.590Z,77.84
2022-11-10T04:39:36.687Z,77.94
2022-11-10T04:42:03.121Z,77.84
2022-11-10T04:44:29.317Z,77.94
2022-11-10T04:46:55.419Z,78.00
2022-11-10T04:49:21.533Z,78.02
2022-11-10T04:51:47.696Z,77.99
2022-11-10T04:54:13.849Z,78.01
2022-11-10T04:56:39.945Z,77.98
2022-11-10T04:59:06.112Z,77.88
2022-11-10T05:01:32.209Z,77.97
2022-11-10T05:03:58.319Z,77.88
2022-11-10T05:06:24.431Z,77.92
2022-11-10T05:08:50.524Z,77.86
2022-11-10T05:11:16.623Z,77.93
2022-11-10T05:13:42.756Z,77.89
2022-11-10T05:16:08.847Z,78.00
2022-11-10T05:18:34.941Z,77.86
2022-11-10T05:21:01.067Z,77.88
2022-11-10T05:23:27.151Z,77.90
2022-11-10T05:25:53.250Z,77.94
2022-11-10T05:28:19.637Z,77.92
2022-11-10T05:30:45.739Z,77.84
2022-11-10T05:33:11.830Z,77.88
2022-11-10T05:35:37.986Z,77.97
2022-11-10T05:38:04.102Z,77.91
2022-11-10T05:40:30.204Z,77.98
2022-11-10T05:42:56.329Z,77.89
2022-11-10T05:45:22.434Z,78.03
2022-11-10T05:47:48.515Z,78.09
2022-11-10T05:50:14.641Z,78.10
2022-11-10T05:52:40.733Z,78.16
2022-11-10T05:55:06.828Z,78.22
2022-11-10T05:57:32.943Z,78.13
2022-11-10T05:59:59.047Z,78.24
2022-11-10T06:02:25.145Z,78.27
2022-11-10T06:04:51.267Z,78.29
2022-11-10T06:07:17.436Z,78.37
2022-11-10T06:09:43.578Z,78.32
2022-11-10T06:12:09.685Z,78.28
2022-11-10T06:14:35.778Z,78.49
2022-11-10T06:17:01.860Z,78.46
2022-11-10T06:19:27.968Z,78.47
2022-11-10T06:22:01.350Z,78.52
2022-11-10T06:24:29.848Z,78.42
2022-11-10T06:26:55.945Z,78.52
2022-11-10T06:29:26.644Z,78.59
2022-11-10T06:31:53.153Z,78.57
2022-11-10T06:34:19.237Z,78.49
2022-11-10T06:36:45.331Z,78.57
2022-11-10T06:39:11.490Z,78.58
2022-11-10T06:41:37.583Z,78.62
2022-11-10T06:44:03.681Z,78.64
2022-11-10T06:46:29.801Z,78.59
2022-11-10T06:48:55.913Z,78.51
2022-11-10T06:51:22.009Z,78.72
2022-11-10T06:53:48.124Z,78.66
2022-11-10T06:56:14.238Z,78.66
2022-11-10T06:58:40.329Z,78.59
2022-11-10T07:01:06.585Z,78.67
2022-11-10T07:03:32.705Z,78.69
2022-11-10T07:05:58.807Z,78.65
2022-11-10T07:08:24.928Z,78.64
2022-11-10T07:10:51.031Z,78.63
2022-11-10T07:13:17.129Z,78.53
2022-11-10T07:15:43.239Z,78.58
2022-11-10T07:18:09.333Z,78.56
2022-11-10T07:20:35.427Z,78.52
2022-11-10T07:23:01.548Z,78.58
2022-11-10T07:25:27.654Z,78.55
2022-11-10T07:27:53.762Z,78.47
2022-11-10T07:30:19.896Z,78.58
2022-11-10T07:32:45.997Z,78.57
2022-11-10T07:35:12.079Z,78.52
2022-11-10T07:37:38.200Z,78.48
2022-11-10T07:40:04.303Z,78.48
2022-11-10T07:42:30.411Z,78.42
2022-11-10T07:44:56.511Z,78.50
2022-11-10T07:47:22.601Z,78.34
2022-11-10T07:49:48.678Z,78.51
2022-11-10T07:52:14.817Z,78.52
2022-11-10T07:54:40.914Z,78.47
2022-11-10T07:57:07.000Z,78.51
2022-11-10T07:59:33.115Z,78.51
2022-11-10T08:01:59.253Z,78.49
2022-11-10T08:04:25.390Z,78.48
2022-11-10T08:06:51.606Z,78.51
2022-11-10T08:09:17.760Z,78.51
2022-11-10T08:11:43.898Z,78.55
2022-11-10T08:14:10.023Z,78.50
2022-11-10T08:16:36.114Z,78.40
2022-11-10T08:19:02.297Z,78.39
2022-11-10T08:21:28.407Z,78.43
2022-11-10T08:23:54.503Z,78.33
2022-11-10T08:26:21.111Z,78.33
2022-11-10T08:28:47.235Z,78.26
2022-11-10T08:31:13.325Z,78.00
2022-11-10T08:33:39.422Z,77.94
2022-11-10T08:36:05.567Z,77.92
2022-11-10T08:38:31.654Z,77.92
2022-11-10T08:40:57.751Z,77.85
2022-11-10T08:43:24.788Z,77.64
2022-11-10T08:45:51.214Z,77.60
2022-11-10T08:48:17.315Z,77.56
2022-11-10T08:50:43.425Z,77.36
2022-11-10T08:53:09.525Z,77.24
2022-11-10T08:55:35.667Z,77.07
2022-11-10T08:58:01.787Z,76.94
2022-11-10T09:00:27.925Z,76.76
2022-11-10T09:02:54.038Z,76.69
2022-11-10T09:05:20.141Z,76.63
2022-11-10T09:07:46.251Z,76.54
2022-11-10T09:10:12.348Z,76.47
2022-11-10T09:12:38.467Z,76.46
2022-11-10T09:15:04.572Z,76.22
2022-11-10T09:17:30.664Z,76.27
2022-11-10T09:19:56.853Z,76.19
2022-11-10T09:22:22.952Z,76.11
2022-11-10T09:24:49.071Z,75.86
2022-11-10T09:27:15.174Z,75.97
2022-11-10T09:29:41.259Z,75.82
2022-11-10T09:32:07.353Z,75.76
2022-11-10T09:34:33.481Z,75.61
2022-11-10T09:36:59.593Z,75.56
2022-11-10T09:39:25.683Z,75.50
2022-11-10T09:41:51.781Z,75.45
2022-11-10T09:44:17.875Z,75.32
2022-11-10T09:46:43.963Z,75.25
2022-11-10T09:49:10.198Z,75.15
2022-11-10T09:51:36.316Z,74.86
2022-11-10T09:54:02.421Z,74.98
2022-11-10T09:56:28.547Z,74.83
2022-11-10T09:58:54.636Z,74.89
2022-11-10T10:01:20.766Z,74.72
2022-11-10T10:03:46.894Z,74.43
2022-11-10T10:06:13.004Z,74.41
2022-11-10T10:08:39.100Z,74.24
2022-11-10T10:11:05.707Z,74.12
2022-11-10T10:13:31.804Z,73.98
2022-11-10T10:15:57.895Z,73.96
2022-11-10T10:18:24.177Z,73.69
2022-11-10T10:20:50.532Z,73.71
2022-11-10T10:23:16.629Z,73.54
2022-11-10T10:25:42.749Z,73.32
2022-11-10T10:28:08.846Z,73.10
2022-11-10T10:30:34.942Z,73.11
2022-11-10T10:33:01.060Z,72.84
2022-11-10T10:35:27.165Z,72.67
2022-11-10T10:37:53.258Z,72.49
2022-11-10T10:40:19.367Z,72.37
2022-11-10T10:42:45.457Z,72.41
2022-11-10T10:45:11.599Z,72.10
2022-11-10T10:47:37.749Z,72.04
2022-11-10T10:50:03.842Z,72.05
2022-11-10T10:52:29.933Z,72.00
2022-11-10T10:54:56.045Z,71.73
2022-11-10T10:57:22.140Z,71.62
2022-11-10T10:59:48.237Z,71.50
2022-11-10T11:02:14.341Z,71.63
2022-11-10T11:04:40.430Z,71.36
2022-11-10T11:07:06.554Z,71.42
2022-11-10T11:09:32.713Z,71.29
2022-11-10T11:11:58.921Z,71.04
2022-11-10T11:14:25.017Z,71.24
2022-11-10T11:16:51.612Z,71.01
2022-11-10T11:19:17.791Z,70.76
2022-11-10T11:21:43.888Z,70.68
2022-11-10T11:24:10.005Z,70.24
2022-11-10T11:26:36.088Z,70.01
2022-11-10T11:29:02.172Z,69.85
2022-11-10T11:31:28.282Z,69.43
2022-11-10T11:33:54.379Z,69.55
2022-11-10T11:36:20.459Z,69.36
2022-11-10T11:38:46.575Z,69.44
2022-11-10T11:41:12.669Z,69.21
2022-11-10T11:43:38.767Z,69.19
2022-11-10T11:46:04.925Z,69.08
2022-11-10T11:48:31.021Z,68.79
2022-11-10T11:50:57.111Z,68.82
2022-11-10T11:53:23.215Z,68.63
2022-11-10T11:55:49.304Z,68.49
2022-11-10T11:58:15.410Z,68.30
2022-11-10T12:00:41.532Z,68.28
2022-11-10T12:03:07.619Z,68.15
2022-11-10T12:05:33.729Z,68.23
2022-11-10T12:07:59.848Z,68.01
2022-11-10T12:10:25.950Z,67.97
2022-11-10T12:12:52.057Z,68.13
2022-11-10T12:15:18.255Z,67.97
2022-11-10T12:17:44.666Z,67.86
2022-11-10T12:20:10.789Z,68.00
2022-11-10T12:22:36.896Z,67.89
2022-11-10T12:25:03.088Z,67.75
2022-11-10T12:27:29.181Z,67.66
2022-11-10T12:29:55.305Z,67.51
2022-11-10T12:32:21.400Z,67.45
2022-11-10T12:34:47.504Z,67.24
2022-11-10T12:37:13.654Z,67.06
2022-11-10T12:39:39.812Z,67.03
2022-11-10T12:42:06.096Z,66.72
2022-11-10T12:44:32.224Z,66.58
2022-11-10T12:46:58.311Z,66.64
2022-11-10T12:49:24.416Z,66.52
2022-11-10T12:51:50.537Z,66.13
2022-11-10T12:54:17.124Z,65.75
2022-11-10T12:56:43.259Z,65.40
2022-11-10T12:59:09.500Z,65.23
2022-11-10T13:01:35.667Z,65.11
2022-11-10T13:04:01.891Z,64.99
2022-11-10T13:06:28.092Z,64.77
2022-11-10T13:08:54.219Z,64.67
2022-11-10T13:11:20.332Z,64.32
2022-11-10T13:13:46.511Z,64.32
2022-11-10T13:16:12.624Z,64.10
2022-11-10T13:18:38.724Z,63.90
2022-11-10T13:21:04.886Z,63.54
2022-11-10T13:23:31.001Z,63.37
2022-11-10T13:25:57.101Z,63.01
2022-11-10T13:28:23.774Z,62.98
2022-11-10T13:30:49.989Z,62.90
2022-11-10T13:33:16.096Z,62.99
2022-11-10T13:35:42.210Z,63.00
2022-11-10T13:38:08.309Z,62.80
2022-11-10T13:40:34.405Z,62.90
2022-11-10T13:43:00.518Z,62.71
2022-11-10T13:45:26.622Z,62.53
2022-11-10T13:47:52.726Z,62.54
2022-11-10T13:50:18.849Z,62.46
2022-11-10T13:52:44.952Z,62.49
2022-11-10T13:55:16.008Z,62.24
2022-11-10T13:57:42.570Z,62.36
2022-11-10T14:00:08.734Z,62.43
2022-11-10T14:02:34.887Z,62.46
2022-11-10T14:05:01.058Z,62.36
2022-11-10T14:07:27.159Z,62.38
2022-11-10T14:09:53.263Z,62.48
2022-11-10T14:12:19.370Z,62.56
2022-11-10T14:14:45.485Z,62.61
2022-11-10T14:17:11.582Z,62.66
2022-11-10T14:19:37.693Z,62.58
2022-11-10T14:22:03.839Z,62.79
2022-11-10T14:24:29.947Z,62.83
2022-11-10T14:26:56.203Z,62.81
2022-11-10T14:29:22.307Z,62.61
2022-11-10T14:31:48.407Z,62.90
2022-11-10T14:34:14.525Z,62.83
2022-11-10T14:36:40.608Z,62.71
2022-11-10T14:39:06.699Z,62.79
2022-11-10T14:41:32.813Z,62.82
2022-11-10T14:43:58.917Z,62.85
2022-11-10T14:46:25.009Z,62.89
2022-11-10T14:48:51.141Z,62.84
2022-11-10T14:51:17.247Z,62.86
2022-11-10T14:53:43.341Z,62.90
2022-11-10T14:56:10.017Z,62.83
2022-11-10T14:58:36.117Z,63.01
2022-11-10T15:01:02.212Z,62.88
2022-11-10T15:03:28.316Z,62.92
2022-11-10T15:05:54.418Z,63.00
2022-11-10T15:08:20.880Z,63.06
2022-11-10T15:10:47.499Z,63.19
2022-11-10T15:13:13.592Z,63.27
2022-11-10T15:15:39.686Z,63.35
2022-11-10T15:18:05.801Z,63.59
2022-11-10T15:20:31.943Z,63.62
2022-11-10T15:22:58.057Z,63.77
2022-11-10T15:25:24.168Z,63.97
2022-11-10T15:27:51.251Z,64.15
2022-11-10T15:30:17.423Z,64.34
2022-11-10T15:32:43.680Z,64.37
2022-11-10T15:35:09.779Z,64.67
2022-11-10T15:37:35.879Z,64.81
2022-11-10T15:40:02.005Z,64.74
2022-11-10T15:42:28.091Z,65.11
2022-11-10T15:44:54.193Z,65.15
2022-11-10T15:47:20.303Z,65.22
2022-11-10T15:49:46.407Z,65.40
2022-11-10T15:52:12.505Z,65.69
2022-11-10T15:54:38.727Z,65.84
2022-11-10T15:57:04.826Z,65.95
2022-11-10T15:59:30.924Z,65.96
2022-11-10T16:01:57.146Z,66.10
2022-11-10T16:04:23.342Z,66.54
2022-11-10T16:06:49.456Z,66.41
2022-11-10T16:09:15.581Z,66.62
2022-11-10T16:11:41.684Z,66.79
2022-11-10T16:14:07.772Z,67.02
2022-11-10T16:16:33.877Z,67.21
2022-11-10T16:18:59.962Z,67.36
2022-11-10T16:21:26.053Z,67.54
2022-11-10T16:23:52.186Z,67.51
2022-11-10T16:26:18.290Z,67.75
2022-11-10T16:28:44.405Z,67.86
2022-11-10T16:31:11.012Z,68.13
2022-11-10T16:33:37.101Z,68.39
2022-11-10T16:36:03.207Z,68.36
2022-11-10T16:38:29.320Z,68.38
2022-11-10T16:40:55.420Z,68.47
2022-11-10T16:43:21.519Z,68.69
2022-11-10T16:45:47.719Z,68.78
2022-11-10T16:48:13.810Z,68.79
2022-11-10T16:50:39.911Z,68.76
2022-11-10T16:53:06.024Z,68.84
2022-11-10T16:55:32.118Z,69.06
2022-11-10T16:57:58.225Z,69.10
2022-11-10T17:00:25.346Z,69.20
2022-11-10T17:02:51.718Z,69.47
2022-11-10T17:05:17.806Z,69.36
2022-11-10T17:07:43.924Z,69.41
2022-11-10T17:10:10.018Z,69.56
2022-11-10T17:12:36.252Z,69.66
2022-11-10T17:15:02.457Z,69.72
2022-11-10T17:17:28.560Z,69.90
2022-11-10T17:19:54.657Z,69.92
2022-11-10T17:22:20.776Z,70.03
2022-11-10T17:24:46.874Z,70.13
2022-11-10T17:27:12.957Z,70.07
2022-11-10T17:29:39.053Z,70.30
2022-11-10T17:32:05.147Z,70.27
2022-11-10T17:34:31.252Z,70.42
2022-11-10T17:36:57.848Z,70.54
2022-11-10T17:39:23.927Z,70.68
2022-11-10T17:41:50.020Z,70.71
2022-11-10T17:44:16.147Z,70.88
2022-11-10T17:46:42.246Z,70.96
2022-11-10T17:49:08.372Z,71.01
2022-11-10T17:51:34.498Z,71.15
2022-11-10T17:54:00.596Z,71.18
2022-11-10T17:56:26.702Z,71.25
2022-11-10T17:58:52.877Z,71.37
2022-11-10T18:01:19.067Z,71.37
2022-11-10T18:03:45.218Z,71.39
2022-11-10T18:06:11.876Z,71.66
2022-11-10T18:08:37.981Z,71.75
2022-11-10T18:11:04.074Z,71.79
2022-11-10T18:13:30.186Z,72.02
2022-11-10T18:15:56.288Z,72.04
2022-11-10T18:18:22.379Z,72.19
2022-11-10T18:20:48.497Z,72.22
2022-11-10T18:23:14.580Z,72.33
2022-11-10T18:25:40.680Z,72.38
2022-11-10T18:28:06.783Z,72.42
2022-11-10T18:30:35.231Z,72.50
2022-11-10T18:33:01.768Z,72.61
2022-11-10T18:35:27.910Z,72.68
2022-11-10T18:37:54.172Z,72.73
2022-11-10T18:40:20.447Z,72.85
2022-11-10T18:42:46.742Z,72.86
2022-11-10T18:45:12.881Z,72.96
2022-11-10T18:47:38.972Z,73.06
2022-11-10T18:50:05.081Z,73.13
2022-11-10T18:52:31.184Z,73.14
2022-11-10T18:54:57.290Z,73.23
2022-11-10T18:57:23.401Z,73.31
2022-11-10T18:59:49.509Z,73.54
2022-11-10T19:02:15.610Z,73.43
2022-11-10T19:04:41.737Z,73.43
2022-11-10T19:07:07.867Z,73.38
2022-11-10T19:09:34.009Z,73.56
2022-11-10T19:12:00.126Z,73.58
2022-11-10T19:14:26.224Z,73.52
2022-11-10T19:16:52.309Z,73.61
2022-11-10T19:19:18.422Z,73.59
2022-11-10T19:21:44.538Z,73.58
2022-11-10T19:24:10.651Z,73.61
2022-11-10T19:26:36.819Z,73.59
2022-11-10T19:29:02.908Z,73.75
2022-11-10T19:31:29.014Z,73.53
2022-11-10T19:33:55.141Z,73.50
2022-11-10T19:36:21.229Z,73.47
2022-11-10T19:38:47.321Z,73.36
2022-11-10T19:41:13.723Z,73.50
2022-11-10T19:43:42.477Z,73.56
2022-11-10T19:46:12.406Z,73.65
2022-11-10T19:48:38.518Z,73.53
2022-11-10T19:51:04.611Z,73.58
2022-11-10T19:53:30.709Z,73.69
2022-11-10T19:55:56.813Z,73.72
2022-11-10T19:58:22.920Z,73.77
2022-11-10T20:00:49.012Z,73.74
2022-11-10T20:03:15.111Z,73.62
2022-11-10T20:05:41.205Z,73.83
2022-11-10T20:08:09.812Z,73.72
2022-11-10T20:10:37.219Z,73.71
2022-11-10T20:13:03.307Z,73.78
2022-11-10T20:15:29.399Z,73.83
2022-11-10T20:17:55.501Z,73.80
2022-11-10T20:20:21.606Z,73.99
2022-11-10T20:22:47.713Z,73.99
2022-11-10T20:25:13.826Z,74.07
2022-11-10T20:27:39.921Z,74.03
2022-11-10T20:30:06.021Z,74.10
2022-11-10T20:32:32.138Z,73.80
2022-11-10T20:34:58.246Z,74.04
2022-11-10T20:37:24.346Z,73.98
2022-11-10T20:39:50.472Z,73.96
2022-11-10T20:42:16.565Z,73.99
2022-11-10T20:44:42.653Z,73.75
2022-11-10T20:47:09.092Z,73.81
2022-11-10T20:49:35.214Z,73.63
2022-11-10T20:52:01.403Z,73.70
2022-11-10T20:54:27.518Z,73.36
2022-11-10T20:56:53.611Z,73.41
2022-11-10T20:59:19.711Z,73.42
2022-11-10T21:01:45.862Z,73.22
2022-11-10T21:04:11.998Z,73.31
2022-11-10T21:06:38.149Z,73.09
2022-11-10T21:09:04.282Z,72.93
2022-11-10T21:11:32.467Z,73.16
2022-11-10T21:13:58.890Z,73.11
2022-11-10T21:16:25.932Z,73.09
2022-11-10T21:18:52.030Z,73.05
2022-11-10T21:21:18.124Z,72.86
2022-11-10T21:23:44.230Z,72.89
2022-11-10T21:26:10.329Z,72.88
2022-11-10T21:28:36.434Z,72.67
2022-11-10T21:31:02.552Z,72.52
2022-11-10T21:33:28.649Z,72.36
2022-11-10T21:35:54.864Z,72.39
2022-11-10T21:38:20.981Z,72.23
2022-11-10T21:40:47.083Z,72.03
2022-11-10T21:43:13.177Z,72.03
2022-11-10T21:45:39.330Z,71.97
2022-11-10T21:48:05.448Z,71.89
2022-11-10T21:50:31.541Z,71.80
2022-11-10T21:52:57.646Z,71.72
2022-11-10T21:55:23.737Z,71.69
2022-11-10T21:57:49.920Z,71.68
2022-11-10T22:00:16.029Z,71.68
2022-11-10T22:02:42.119Z,71.64
2022-11-10T22:05:08.210Z,71.68
2022-11-10T22:07:34.321Z,71.67
2022-11-10T22:10:00.417Z,71.67
2022-11-10T22:12:26.507Z,71.67
2022-11-10T22:14:52.639Z,71.75
2022-11-10T22:17:18.732Z,71.66
2022-11-10T22:19:44.825Z,71.61
2022-11-10T22:22:10.923Z,71.71
2022-11-10T22:24:37.016Z,71.67
2022-11-10T22:27:03.149Z,71.71
2022-11-10T22:29:31.665Z,71.72
2022-11-10T22:31:58.158Z,71.85
2022-11-10T22:34:24.252Z,71.74
2022-11-10T22:36:50.370Z,71.90
2022-11-10T22:39:16.468Z,71.96
2022-11-10T22:41:42.555Z,71.82
2022-11-10T22:44:08.679Z,71.87
2022-11-10T22:46:34.781Z,71.79
2022-11-10T22:49:00.869Z,71.92
2022-11-10T22:51:27.051Z,71.87
2022-11-10T22:53:53.140Z,71.88
2022-11-10T22:56:19.232Z,71.90
2022-11-10T22:58:45.339Z,71.85
2022-11-10T23:01:11.544Z,71.91
2022-11-10T23:03:37.692Z,71.99
2022-11-10T23:06:03.814Z,71.91
2022-11-10T23:08:29.931Z,71.96
2022-11-10T23:10:56.021Z,71.94
2022-11-10T23:13:22.424Z,71.91
2022-11-10T23:15:48.706Z,71.96
2022-11-10T23:18:14.794Z,71.92
2022-11-10T23:20:41.553Z,71.93
2022-11-10T23:23:07.650Z,71.71
2022-11-10T23:25:33.763Z,71.94
2022-11-10T23:27:59.873Z,71.78
2022-11-10T23:30:25.961Z,71.69
2022-11-10T23:32:52.049Z,71.79
2022-11-10T23:35:18.181Z,71.74
2022-11-10T23:37:44.289Z,71.74
2022-11-10T23:40:10.428Z,71.73
2022-11-10T23:42:36.541Z,71.69
2022-11-10T23:45:02.659Z,71.63
2022-11-10T23:47:28.751Z,71.39
2022-11-10T23:49:54.907Z,71.35
2022-11-10T23:52:20.995Z,71.22
2022-11-10T23:54:47.104Z,71.19
2022-11-10T23:57:13.505Z,70.93
2022-11-10T23:59:39.596Z,71.01
